sensor_id;sensor_type;location;lat;lon;timestamp;P1;durP1;ratioP1;P2;durP2;ratioP2
49147;SDS011;41980;45.550;12.070;2023-04-06T00:02:54;12.52;;;8.98;;
49147;SDS011;41980;45.550;12.070;2023-04-06T00:08:56;20.63;;;15.15;;
49147;SDS011;41980;45.550;12.070;2023-04-06T00:14:58;11.32;;;7.32;;
49147;SDS011;41980;45.550;12.070;2023-04-06T00:21:03;9.57;;;5.93;;
49147;SDS011;41980;45.550;12.070;2023-04-06T00:27:05;9.43;;;5.55;;
49147;SDS011;41980;45.550;12.070;2023-04-06T00:33:08;10.23;;;6.22;;
49147;SDS011;41980;45.550;12.070;2023-04-06T00:39:10;11.18;;;7.40;;
49147;SDS011;41980;45.550;12.070;2023-04-06T00:45:12;8.70;;;5.57;;
49147;SDS011;41980;45.550;12.070;2023-04-06T00:51:14;8.95;;;5.20;;
49147;SDS011;41980;45.550;12.070;2023-04-06T01:09:22;7.88;;;5.65;;
49147;SDS011;41980;45.550;12.070;2023-04-06T01:15:26;8.95;;;5.65;;
49147;SDS011;41980;45.550;12.070;2023-04-06T01:21:30;7.75;;;4.68;;
49147;SDS011;41980;45.550;12.070;2023-04-06T01:27:41;8.50;;;5.30;;
49147;SDS011;41980;45.550;12.070;2023-04-06T01:33:47;6.30;;;3.78;;
49147;SDS011;41980;45.550;12.070;2023-04-06T01:39:53;8.70;;;5.57;;
49147;SDS011;41980;45.550;12.070;2023-04-06T01:46:08;9.15;;;6.03;;
49147;SDS011;41980;45.550;12.070;2023-04-06T01:52:14;10.55;;;6.57;;
49147;SDS011;41980;45.550;12.070;2023-04-06T01:58:23;6.25;;;4.50;;
49147;SDS011;41980;45.550;12.070;2023-04-06T02:04:26;6.53;;;4.53;;
49147;SDS011;41980;45.550;12.070;2023-04-06T02:10:39;10.52;;;6.70;;
49147;SDS011;41980;45.550;12.070;2023-04-06T02:16:51;6.77;;;3.70;;
49147;SDS011;41980;45.550;12.070;2023-04-06T02:28:55;8.40;;;5.40;;
49147;SDS011;41980;45.550;12.070;2023-04-06T02:34:57;14.48;;;6.35;;
49147;SDS011;41980;45.550;12.070;2023-04-06T02:41:00;8.95;;;6.05;;
49147;SDS011;41980;45.550;12.070;2023-04-06T02:47:03;8.63;;;6.13;;
49147;SDS011;41980;45.550;12.070;2023-04-06T02:53:05;9.55;;;6.43;;
49147;SDS011;41980;45.550;12.070;2023-04-06T02:59:09;9.18;;;5.75;;
49147;SDS011;41980;45.550;12.070;2023-04-06T03:05:12;9.48;;;6.43;;
49147;SDS011;41980;45.550;12.070;2023-04-06T03:11:17;7.75;;;5.20;;
49147;SDS011;41980;45.550;12.070;2023-04-06T03:17:20;9.73;;;6.28;;
49147;SDS011;41980;45.550;12.070;2023-04-06T03:29:30;9.52;;;6.20;;
49147;SDS011;41980;45.550;12.070;2023-04-06T03:35:33;10.18;;;6.40;;
49147;SDS011;41980;45.550;12.070;2023-04-06T03:41:35;11.02;;;5.57;;
49147;SDS011;41980;45.550;12.070;2023-04-06T03:47:46;6.13;;;4.35;;
49147;SDS011;41980;45.550;12.070;2023-04-06T03:53:49;9.07;;;6.03;;
49147;SDS011;41980;45.550;12.070;2023-04-06T03:59:52;9.32;;;5.22;;
49147;SDS011;41980;45.550;12.070;2023-04-06T04:11:58;9.70;;;6.57;;
49147;SDS011;41980;45.550;12.070;2023-04-06T04:18:00;7.95;;;5.30;;
49147;SDS011;41980;45.550;12.070;2023-04-06T04:24:02;9.48;;;5.20;;
49147;SDS011;41980;45.550;12.070;2023-04-06T04:30:06;8.75;;;4.72;;
49147;SDS011;41980;45.550;12.070;2023-04-06T04:36:09;8.77;;;5.38;;
49147;SDS011;41980;45.550;12.070;2023-04-06T04:42:16;10.52;;;5.68;;
49147;SDS011;41980;45.550;12.070;2023-04-06T04:48:25;7.40;;;4.72;;
49147;SDS011;41980;45.550;12.070;2023-04-06T04:54:32;10.98;;;6.25;;
49147;SDS011;41980;45.550;12.070;2023-04-06T05:00:34;11.32;;;4.95;;
49147;SDS011;41980;45.550;12.070;2023-04-06T05:06:37;12.52;;;5.22;;
49147;SDS011;41980;45.550;12.070;2023-04-06T05:12:40;9.52;;;4.50;;
49147;SDS011;41980;45.550;12.070;2023-04-06T05:18:44;9.23;;;3.85;;
49147;SDS011;41980;45.550;12.070;2023-04-06T05:24:47;6.40;;;3.58;;
49147;SDS011;41980;45.550;12.070;2023-04-06T05:30:50;6.30;;;3.65;;
49147;SDS011;41980;45.550;12.070;2023-04-06T05:36:53;4.80;;;2.80;;
49147;SDS011;41980;45.550;12.070;2023-04-06T05:42:59;7.50;;;4.57;;
49147;SDS011;41980;45.550;12.070;2023-04-06T05:49:02;5.20;;;3.15;;
49147;SDS011;41980;45.550;12.070;2023-04-06T05:55:07;6.93;;;4.30;;
49147;SDS011;41980;45.550;12.070;2023-04-06T06:01:09;5.30;;;3.95;;
49147;SDS011;41980;45.550;12.070;2023-04-06T06:07:16;6.03;;;3.63;;
49147;SDS011;41980;45.550;12.070;2023-04-06T06:13:26;4.90;;;3.25;;
49147;SDS011;41980;45.550;12.070;2023-04-06T06:19:29;6.75;;;4.05;;
49147;SDS011;41980;45.550;12.070;2023-04-06T06:25:35;6.75;;;3.75;;
49147;SDS011;41980;45.550;12.070;2023-04-06T06:31:39;4.78;;;3.38;;
49147;SDS011;41980;45.550;12.070;2023-04-06T06:37:41;7.95;;;4.13;;
49147;SDS011;41980;45.550;12.070;2023-04-06T06:43:48;12.63;;;6.20;;
49147;SDS011;41980;45.550;12.070;2023-04-06T06:49:52;7.10;;;4.05;;
49147;SDS011;41980;45.550;12.070;2023-04-06T06:55:55;7.88;;;4.15;;
49147;SDS011;41980;45.550;12.070;2023-04-06T07:01:58;8.25;;;5.22;;
49147;SDS011;41980;45.550;12.070;2023-04-06T07:08:01;5.55;;;3.45;;
49147;SDS011;41980;45.550;12.070;2023-04-06T07:14:03;7.88;;;4.07;;
49147;SDS011;41980;45.550;12.070;2023-04-06T07:20:06;8.82;;;4.78;;
49147;SDS011;41980;45.550;12.070;2023-04-06T07:26:10;7.15;;;3.47;;
49147;SDS011;41980;45.550;12.070;2023-04-06T07:32:12;4.53;;;2.60;;
49147;SDS011;41980;45.550;12.070;2023-04-06T07:38:16;8.95;;;4.32;;
49147;SDS011;41980;45.550;12.070;2023-04-06T07:44:18;10.00;;;3.70;;
49147;SDS011;41980;45.550;12.070;2023-04-06T07:50:23;5.95;;;3.30;;
49147;SDS011;41980;45.550;12.070;2023-04-06T07:56:25;6.43;;;3.83;;
49147;SDS011;41980;45.550;12.070;2023-04-06T08:02:27;7.45;;;4.75;;
49147;SDS011;41980;45.550;12.070;2023-04-06T08:08:29;7.82;;;3.60;;
49147;SDS011;41980;45.550;12.070;2023-04-06T08:14:32;6.72;;;3.35;;
49147;SDS011;41980;45.550;12.070;2023-04-06T08:20:34;6.65;;;3.13;;
49147;SDS011;41980;45.550;12.070;2023-04-06T08:26:36;6.30;;;3.30;;
49147;SDS011;41980;45.550;12.070;2023-04-06T08:32:38;5.25;;;2.38;;
49147;SDS011;41980;45.550;12.070;2023-04-06T08:38:42;3.28;;;1.88;;
49147;SDS011;41980;45.550;12.070;2023-04-06T08:44:47;7.80;;;5.22;;
49147;SDS011;41980;45.550;12.070;2023-04-06T08:50:52;3.70;;;2.10;;
49147;SDS011;41980;45.550;12.070;2023-04-06T08:56:57;5.75;;;2.33;;
49147;SDS011;41980;45.550;12.070;2023-04-06T09:02:59;3.53;;;1.67;;
49147;SDS011;41980;45.550;12.070;2023-04-06T09:09:03;4.53;;;2.63;;
49147;SDS011;41980;45.550;12.070;2023-04-06T09:15:05;5.20;;;2.40;;
49147;SDS011;41980;45.550;12.070;2023-04-06T09:21:18;7.43;;;3.25;;
49147;SDS011;41980;45.550;12.070;2023-04-06T09:33:31;4.32;;;2.40;;
49147;SDS011;41980;45.550;12.070;2023-04-06T09:39:33;3.67;;;2.20;;
49147;SDS011;41980;45.550;12.070;2023-04-06T09:45:35;4.38;;;2.65;;
49147;SDS011;41980;45.550;12.070;2023-04-06T10:10:05;4.05;;;2.45;;
49147;SDS011;41980;45.550;12.070;2023-04-06T10:16:09;6.70;;;3.78;;
49147;SDS011;41980;45.550;12.070;2023-04-06T10:22:12;5.82;;;4.22;;
49147;SDS011;41980;45.550;12.070;2023-04-06T10:28:17;5.53;;;3.40;;
49147;SDS011;41980;45.550;12.070;2023-04-06T10:34:21;4.30;;;2.20;;
49147;SDS011;41980;45.550;12.070;2023-04-06T10:40:23;6.35;;;3.08;;
49147;SDS011;41980;45.550;12.070;2023-04-06T10:46:28;4.93;;;3.58;;
49147;SDS011;41980;45.550;12.070;2023-04-06T10:52:32;4.82;;;3.67;;
49147;SDS011;41980;45.550;12.070;2023-04-06T10:58:35;7.13;;;3.33;;
49147;SDS011;41980;45.550;12.070;2023-04-06T11:04:37;4.13;;;2.67;;
49147;SDS011;41980;45.550;12.070;2023-04-06T11:10:40;8.65;;;5.25;;
49147;SDS011;41980;45.550;12.070;2023-04-06T11:16:42;6.72;;;4.65;;
49147;SDS011;41980;45.550;12.070;2023-04-06T11:22:48;6.03;;;3.80;;
49147;SDS011;41980;45.550;12.070;2023-04-06T11:28:52;4.82;;;3.47;;
49147;SDS011;41980;45.550;12.070;2023-04-06T11:34:57;14.68;;;7.15;;
49147;SDS011;41980;45.550;12.070;2023-04-06T11:41:01;11.40;;;6.30;;
49147;SDS011;41980;45.550;12.070;2023-04-06T11:47:04;13.75;;;7.28;;
49147;SDS011;41980;45.550;12.070;2023-04-06T11:53:08;12.35;;;6.22;;
49147;SDS011;41980;45.550;12.070;2023-04-06T11:59:10;9.77;;;5.35;;
49147;SDS011;41980;45.550;12.070;2023-04-06T12:05:12;6.95;;;4.90;;
49147;SDS011;41980;45.550;12.070;2023-04-06T12:11:15;8.05;;;4.80;;
49147;SDS011;41980;45.550;12.070;2023-04-06T12:17:18;11.32;;;7.53;;
49147;SDS011;41980;45.550;12.070;2023-04-06T12:23:21;8.15;;;4.57;;
49147;SDS011;41980;45.550;12.070;2023-04-06T12:29:24;8.23;;;5.55;;
49147;SDS011;41980;45.550;12.070;2023-04-06T12:35:27;10.20;;;4.15;;
49147;SDS011;41980;45.550;12.070;2023-04-06T12:41:29;8.23;;;5.55;;
49147;SDS011;41980;45.550;12.070;2023-04-06T12:47:31;8.35;;;6.45;;
49147;SDS011;41980;45.550;12.070;2023-04-06T12:53:33;5.03;;;3.50;;
49147;SDS011;41980;45.550;12.070;2023-04-06T12:59:36;6.88;;;4.55;;
49147;SDS011;41980;45.550;12.070;2023-04-06T13:11:46;5.97;;;4.07;;
49147;SDS011;41980;45.550;12.070;2023-04-06T13:17:48;13.80;;;9.35;;
49147;SDS011;41980;45.550;12.070;2023-04-06T13:23:50;7.25;;;4.50;;
49147;SDS011;41980;45.550;12.070;2023-04-06T13:29:52;12.73;;;8.07;;
49147;SDS011;41980;45.550;12.070;2023-04-06T13:35:55;10.10;;;5.97;;
49147;SDS011;41980;45.550;12.070;2023-04-06T13:41:58;10.10;;;6.05;;
49147;SDS011;41980;45.550;12.070;2023-04-06T13:48:00;7.35;;;5.05;;
49147;SDS011;41980;45.550;12.070;2023-04-06T13:54:02;9.10;;;5.78;;
49147;SDS011;41980;45.550;12.070;2023-04-06T14:00:05;6.32;;;4.10;;
49147;SDS011;41980;45.550;12.070;2023-04-06T14:12:14;6.35;;;4.38;;
49147;SDS011;41980;45.550;12.070;2023-04-06T14:18:16;7.88;;;4.68;;
49147;SDS011;41980;45.550;12.070;2023-04-06T14:24:18;7.22;;;5.03;;
49147;SDS011;41980;45.550;12.070;2023-04-06T14:30:21;8.90;;;5.50;;
49147;SDS011;41980;45.550;12.070;2023-04-06T14:36:23;10.40;;;6.00;;
49147;SDS011;41980;45.550;12.070;2023-04-06T14:42:28;6.45;;;4.05;;
49147;SDS011;41980;45.550;12.070;2023-04-06T14:48:30;6.25;;;3.60;;
49147;SDS011;41980;45.550;12.070;2023-04-06T14:54:32;5.55;;;3.38;;
49147;SDS011;41980;45.550;12.070;2023-04-06T15:00:36;7.20;;;3.85;;
49147;SDS011;41980;45.550;12.070;2023-04-06T15:06:39;6.32;;;3.70;;
49147;SDS011;41980;45.550;12.070;2023-04-06T15:12:41;7.60;;;3.97;;
49147;SDS011;41980;45.550;12.070;2023-04-06T15:18:43;8.65;;;3.55;;
49147;SDS011;41980;45.550;12.070;2023-04-06T15:24:45;5.18;;;3.08;;
49147;SDS011;41980;45.550;12.070;2023-04-06T15:30:47;4.82;;;2.88;;
49147;SDS011;41980;45.550;12.070;2023-04-06T15:36:49;5.05;;;3.15;;
49147;SDS011;41980;45.550;12.070;2023-04-06T15:42:52;4.65;;;2.80;;
49147;SDS011;41980;45.550;12.070;2023-04-06T15:48:54;7.90;;;4.22;;
49147;SDS011;41980;45.550;12.070;2023-04-06T15:54:57;8.20;;;4.65;;
49147;SDS011;41980;45.550;12.070;2023-04-06T16:00:59;7.00;;;4.18;;
49147;SDS011;41980;45.550;12.070;2023-04-06T16:07:11;6.00;;;3.40;;
49147;SDS011;41980;45.550;12.070;2023-04-06T16:13:13;5.85;;;3.50;;
49147;SDS011;41980;45.550;12.070;2023-04-06T16:19:15;6.78;;;3.67;;
49147;SDS011;41980;45.550;12.070;2023-04-06T16:25:17;5.88;;;3.50;;
49147;SDS011;41980;45.550;12.070;2023-04-06T16:31:22;6.10;;;3.60;;
49147;SDS011;41980;45.550;12.070;2023-04-06T16:37:25;4.97;;;3.25;;
49147;SDS011;41980;45.550;12.070;2023-04-06T16:43:30;4.95;;;2.78;;
49147;SDS011;41980;45.550;12.070;2023-04-06T16:49:33;4.82;;;2.85;;
49147;SDS011;41980;45.550;12.070;2023-04-06T17:01:41;3.20;;;2.05;;
49147;SDS011;41980;45.550;12.070;2023-04-06T17:07:43;4.47;;;2.35;;
49147;SDS011;41980;45.550;12.070;2023-04-06T17:13:47;4.32;;;1.92;;
49147;SDS011;41980;45.550;12.070;2023-04-06T17:19:50;4.03;;;1.95;;
49147;SDS011;41980;45.550;12.070;2023-04-06T17:31:55;5.13;;;3.13;;
49147;SDS011;41980;45.550;12.070;2023-04-06T17:37:57;4.20;;;2.13;;
49147;SDS011;41980;45.550;12.070;2023-04-06T17:43:59;4.57;;;2.47;;
49147;SDS011;41980;45.550;12.070;2023-04-06T17:50:01;4.80;;;2.75;;
49147;SDS011;41980;45.550;12.070;2023-04-06T17:56:04;5.00;;;2.42;;
49147;SDS011;41980;45.550;12.070;2023-04-06T18:02:06;4.80;;;2.15;;
49147;SDS011;41980;45.550;12.070;2023-04-06T18:14:10;5.75;;;3.30;;
49147;SDS011;41980;45.550;12.070;2023-04-06T18:20:14;3.95;;;2.40;;
49147;SDS011;41980;45.550;12.070;2023-04-06T18:26:17;3.78;;;2.10;;
49147;SDS011;41980;45.550;12.070;2023-04-06T18:32:21;6.65;;;2.90;;
49147;SDS011;41980;45.550;12.070;2023-04-06T18:44:25;3.17;;;2.05;;
49147;SDS011;41980;45.550;12.070;2023-04-06T18:50:27;3.65;;;1.90;;
49147;SDS011;41980;45.550;12.070;2023-04-06T19:02:31;4.77;;;2.50;;
49147;SDS011;41980;45.550;12.070;2023-04-06T19:08:33;3.63;;;2.47;;
49147;SDS011;41980;45.550;12.070;2023-04-06T19:14:35;6.22;;;2.70;;
49147;SDS011;41980;45.550;12.070;2023-04-06T19:20:37;4.07;;;2.38;;
49147;SDS011;41980;45.550;12.070;2023-04-06T19:32:42;5.55;;;3.20;;
49147;SDS011;41980;45.550;12.070;2023-04-06T19:38:44;4.55;;;2.88;;
49147;SDS011;41980;45.550;12.070;2023-04-06T19:44:48;6.18;;;3.58;;
49147;SDS011;41980;45.550;12.070;2023-04-06T19:56:54;7.38;;;4.45;;
49147;SDS011;41980;45.550;12.070;2023-04-06T20:02:57;5.45;;;3.75;;
49147;SDS011;41980;45.550;12.070;2023-04-06T20:09:01;8.88;;;6.28;;
49147;SDS011;41980;45.550;12.070;2023-04-06T20:21:05;6.28;;;4.50;;
49147;SDS011;41980;45.550;12.070;2023-04-06T20:27:07;14.73;;;10.10;;
49147;SDS011;41980;45.550;12.070;2023-04-06T20:33:09;8.90;;;5.43;;
49147;SDS011;41980;45.550;12.070;2023-04-06T20:45:13;9.68;;;6.72;;
49147;SDS011;41980;45.550;12.070;2023-04-06T20:51:17;10.48;;;7.43;;
49147;SDS011;41980;45.550;12.070;2023-04-06T20:57:20;9.15;;;6.82;;
49147;SDS011;41980;45.550;12.070;2023-04-06T21:03:22;8.15;;;5.57;;
49147;SDS011;41980;45.550;12.070;2023-04-06T21:09:24;10.63;;;7.25;;
49147;SDS011;41980;45.550;12.070;2023-04-06T21:15:28;14.25;;;7.93;;
49147;SDS011;41980;45.550;12.070;2023-04-06T21:21:30;20.33;;;15.98;;
49147;SDS011;41980;45.550;12.070;2023-04-06T21:27:32;17.10;;;11.98;;
49147;SDS011;41980;45.550;12.070;2023-04-06T21:33:34;17.35;;;11.18;;
49147;SDS011;41980;45.550;12.070;2023-04-06T21:39:36;12.88;;;9.05;;
49147;SDS011;41980;45.550;12.070;2023-04-06T21:45:38;16.77;;;10.55;;
49147;SDS011;41980;45.550;12.070;2023-04-06T21:57:45;11.18;;;7.53;;
49147;SDS011;41980;45.550;12.070;2023-04-06T22:03:46;11.45;;;6.88;;
49147;SDS011;41980;45.550;12.070;2023-04-06T22:09:48;11.23;;;7.35;;
49147;SDS011;41980;45.550;12.070;2023-04-06T22:15:52;8.98;;;6.55;;
49147;SDS011;41980;45.550;12.070;2023-04-06T22:21:54;14.45;;;8.55;;
49147;SDS011;41980;45.550;12.070;2023-04-06T22:27:56;10.73;;;6.75;;
49147;SDS011;41980;45.550;12.070;2023-04-06T22:33:58;35.05;;;19.73;;
49147;SDS011;41980;45.550;12.070;2023-04-06T22:46:02;10.80;;;6.60;;
49147;SDS011;41980;45.550;12.070;2023-04-06T22:52:03;10.18;;;7.38;;
49147;SDS011;41980;45.550;12.070;2023-04-06T23:04:07;11.10;;;7.47;;
49147;SDS011;41980;45.550;12.070;2023-04-06T23:10:09;9.77;;;6.22;;
49147;SDS011;41980;45.550;12.070;2023-04-06T23:16:11;10.38;;;6.97;;
49147;SDS011;41980;45.550;12.070;2023-04-06T23:28:15;11.75;;;8.05;;
49147;SDS011;41980;45.550;12.070;2023-04-06T23:34:17;12.55;;;8.75;;
49147;SDS011;41980;45.550;12.070;2023-04-06T23:40:19;10.20;;;6.93;;
49147;SDS011;41980;45.550;12.070;2023-04-06T23:52:23;18.60;;;13.07;;
49147;SDS011;41980;45.550;12.070;2023-04-06T23:58:25;18.90;;;10.82;;
